sensor_id;sensor_type;location;lat;lon;timestamp;temperature;humidity
2565;DHT22;1292;48.020;7.822;2023-05-16T05:47:16;12.10;99.90
2565;DHT22;1292;48.020;7.822;2023-05-16T05:49:42;12.00;99.90
2565;DHT22;1292;48.020;7.822;2023-05-16T05:52:09;12.00;99.90
2565;DHT22;1292;48.020;7.822;2023-05-16T05:54:36;11.90;99.90
2565;DHT22;1292;48.020;7.822;2023-05-16T05:57:03;12.00;99.90
2565;DHT22;1292;48.020;7.822;2023-05-16T05:59:30;11.90;99.90
2565;DHT22;1292;48.020;7.822;2023-05-16T06:01:57;11.80;99.90
2565;DHT22;1292;48.020;7.822;2023-05-16T06:04:25;11.80;99.90
2565;DHT22;1292;48.020;7.822;2023-05-16T06:06:52;11.90;99.90
2565;DHT22;1292;48.020;7.822;2023-05-16T06:09:20;11.90;99.90
2565;DHT22;1292;48.020;7.822;2023-05-16T06:11:47;11.90;99.90
2565;DHT22;1292;48.020;7.822;2023-05-16T06:14:14;11.90;99.90
2565;DHT22;1292;48.020;7.822;2023-05-16T06:16:41;11.90;99.90
2565;DHT22;1292;48.020;7.822;2023-05-16T06:19:08;11.90;99.90
2565;DHT22;1292;48.020;7.822;2023-05-16T06:21:38;12.00;99.90
2565;DHT22;1292;48.020;7.822;2023-05-16T06:24:04;12.00;99.90
2565;DHT22;1292;48.020;7.822;2023-05-16T06:26:32;11.90;99.90
2565;DHT22;1292;48.020;7.822;2023-05-16T06:28:59;11.90;99.90
2565;DHT22;1292;48.020;7.822;2023-05-16T06:31:26;12.00;99.90
2565;DHT22;1292;48.020;7.822;2023-05-16T06:33:53;12.00;99.90
2565;DHT22;1292;48.020;7.822;2023-05-16T06:36:20;11.90;99.90
2565;DHT22;1292;48.020;7.822;2023-05-16T06:38:48;12.00;99.90
2565;DHT22;1292;48.020;7.822;2023-05-16T06:41:15;11.90;99.90
2565;DHT22;1292;48.020;7.822;2023-05-16T06:43:42;11.90;99.90
2565;DHT22;1292;48.020;7.822;2023-05-16T06:46:09;11.80;99.90
2565;DHT22;1292;48.020;7.822;2023-05-16T06:48:35;11.80;99.90
2565;DHT22;1292;48.020;7.822;2023-05-16T06:51:02;11.80;99.90
2565;DHT22;1292;48.020;7.822;2023-05-16T06:53:29;11.80;99.90
2565;DHT22;1292;48.020;7.822;2023-05-16T06:55:57;11.70;99.90
2565;DHT22;1292;48.020;7.822;2023-05-16T06:58:25;11.80;99.90
2565;DHT22;1292;48.020;7.822;2023-05-16T07:00:52;11.80;99.90
2565;DHT22;1292;48.020;7.822;2023-05-16T07:03:19;11.90;99.90
2565;DHT22;1292;48.020;7.822;2023-05-16T07:05:46;11.90;99.90
2565;DHT22;1292;48.020;7.822;2023-05-16T07:08:14;11.80;99.90
2565;DHT22;1292;48.020;7.822;2023-05-16T07:10:41;11.80;99.90
2565;DHT22;1292;48.020;7.822;2023-05-16T07:13:09;11.90;99.90
2565;DHT22;1292;48.020;7.822;2023-05-16T07:15:36;11.90;99.90
2565;DHT22;1292;48.020;7.822;2023-05-16T07:18:03;12.00;99.90
2565;DHT22;1292;48.020;7.822;2023-05-16T07:20:30;11.90;99.90
2565;DHT22;1292;48.020;7.822;2023-05-16T07:22:57;11.90;99.90
2565;DHT22;1292;48.020;7.822;2023-05-16T07:25:24;11.90;99.90
2565;DHT22;1292;48.020;7.822;2023-05-16T07:27:51;11.90;99.90
2565;DHT22;1292;48.020;7.822;2023-05-16T07:30:19;11.90;99.90
2565;DHT22;1292;48.020;7.822;2023-05-16T07:32:46;11.90;99.90
2565;DHT22;1292;48.020;7.822;2023-05-16T07:35:13;11.90;99.90
2565;DHT22;1292;48.020;7.822;2023-05-16T07:37:40;11.80;99.90
2565;DHT22;1292;48.020;7.822;2023-05-16T07:40:08;11.80;99.90
2565;DHT22;1292;48.020;7.822;2023-05-16T07:42:35;11.80;99.90
2565;DHT22;1292;48.020;7.822;2023-05-16T07:45:03;11.80;99.90
2565;DHT22;1292;48.020;7.822;2023-05-16T07:47:32;11.80;99.90
2565;DHT22;1292;48.020;7.822;2023-05-16T07:50:00;11.80;99.90
2565;DHT22;1292;48.020;7.822;2023-05-16T07:52:26;11.80;99.90
2565;DHT22;1292;48.020;7.822;2023-05-16T07:54:53;11.70;99.90
2565;DHT22;1292;48.020;7.822;2023-05-16T07:57:20;11.70;99.90
2565;DHT22;1292;48.020;7.822;2023-05-16T07:59:47;11.70;99.90
2565;DHT22;1292;48.020;7.822;2023-05-16T08:02:14;11.80;99.90
2565;DHT22;1292;48.020;7.822;2023-05-16T08:04:42;11.80;99.90
2565;DHT22;1292;48.020;7.822;2023-05-16T08:07:09;11.80;99.90
2565;DHT22;1292;48.020;7.822;2023-05-16T08:09:36;11.80;99.90
2565;DHT22;1292;48.020;7.822;2023-05-16T08:12:03;11.80;99.90
2565;DHT22;1292;48.020;7.822;2023-05-16T08:14:30;11.80;99.90
2565;DHT22;1292;48.020;7.822;2023-05-16T08:16:57;11.80;99.90
2565;DHT22;1292;48.020;7.822;2023-05-16T08:19:24;11.80;99.90
2565;DHT22;1292;48.020;7.822;2023-05-16T08:21:53;11.80;99.90
2565;DHT22;1292;48.020;7.822;2023-05-16T08:24:19;11.80;99.90
2565;DHT22;1292;48.020;7.822;2023-05-16T08:26:46;11.80;99.90
2565;DHT22;1292;48.020;7.822;2023-05-16T08:29:13;11.80;99.90
2565;DHT22;1292;48.020;7.822;2023-05-16T08:31:40;11.90;99.90
2565;DHT22;1292;48.020;7.822;2023-05-16T08:34:07;11.80;99.90
2565;DHT22;1292;48.020;7.822;2023-05-16T08:36:34;11.90;99.90
2565;DHT22;1292;48.020;7.822;2023-05-16T08:39:03;11.90;99.90
2565;DHT22;1292;48.020;7.822;2023-05-16T08:41:31;12.00;99.90
2565;DHT22;1292;48.020;7.822;2023-05-16T08:43:58;12.00;99.90
2565;DHT22;1292;48.020;7.822;2023-05-16T08:46:28;12.10;99.90
2565;DHT22;1292;48.020;7.822;2023-05-16T08:48:59;12.10;99.90
2565;DHT22;1292;48.020;7.822;2023-05-16T08:51:27;12.10;99.90
2565;DHT22;1292;48.020;7.822;2023-05-16T08:53:59;12.10;99.90
2565;DHT22;1292;48.020;7.822;2023-05-16T08:56:30;12.10;99.90
2565;DHT22;1292;48.020;7.822;2023-05-16T08:58:59;12.00;99.90
2565;DHT22;1292;48.020;7.822;2023-05-16T09:01:26;12.00;99.90
2565;DHT22;1292;48.020;7.822;2023-05-16T09:03:54;11.90;99.90
2565;DHT22;1292;48.020;7.822;2023-05-16T09:06:21;11.80;99.90
2565;DHT22;1292;48.020;7.822;2023-05-16T09:08:49;11.90;99.90
2565;DHT22;1292;48.020;7.822;2023-05-16T09:11:16;11.90;99.90
2565;DHT22;1292;48.020;7.822;2023-05-16T09:13:44;11.90;99.90
2565;DHT22;1292;48.020;7.822;2023-05-16T09:16:12;12.00;99.90
2565;DHT22;1292;48.020;7.822;2023-05-16T09:18:40;12.00;99.90
2565;DHT22;1292;48.020;7.822;2023-05-16T09:21:09;12.00;99.90
2565;DHT22;1292;48.020;7.822;2023-05-16T09:23:36;12.00;99.90
2565;DHT22;1292;48.020;7.822;2023-05-16T09:26:04;12.10;99.90
2565;DHT22;1292;48.020;7.822;2023-05-16T09:28:33;12.00;99.90
2565;DHT22;1292;48.020;7.822;2023-05-16T09:31:01;12.10;99.90
2565;DHT22;1292;48.020;7.822;2023-05-16T09:33:28;12.10;99.90
2565;DHT22;1292;48.020;7.822;2023-05-16T09:35:56;12.10;99.90
2565;DHT22;1292;48.020;7.822;2023-05-16T09:38:24;12.10;99.90
2565;DHT22;1292;48.020;7.822;2023-05-16T09:40:51;12.20;99.90
2565;DHT22;1292;48.020;7.822;2023-05-16T09:43:22;12.20;99.90
2565;DHT22;1292;48.020;7.822;2023-05-16T09:45:49;12.10;99.90
2565;DHT22;1292;48.020;7.822;2023-05-16T09:48:17;12.10;99.90
2565;DHT22;1292;48.020;7.822;2023-05-16T09:50:49;12.10;99.90
2565;DHT22;1292;48.020;7.822;2023-05-16T09:53:17;12.10;99.90
2565;DHT22;1292;48.020;7.822;2023-05-16T09:55:58;12.10;99.90
2565;DHT22;1292;48.020;7.822;2023-05-16T09:58:28;12.10;99.90
2565;DHT22;1292;48.020;7.822;2023-05-16T10:00:56;12.10;99.90
2565;DHT22;1292;48.020;7.822;2023-05-16T10:03:25;12.00;99.90
2565;DHT22;1292;48.020;7.822;2023-05-16T10:05:52;12.00;99.90
2565;DHT22;1292;48.020;7.822;2023-05-16T10:08:20;12.10;99.90
2565;DHT22;1292;48.020;7.822;2023-05-16T10:10:50;12.00;99.90
2565;DHT22;1292;48.020;7.822;2023-05-16T10:13:18;12.10;99.90
2565;DHT22;1292;48.020;7.822;2023-05-16T10:15:47;12.10;99.90
2565;DHT22;1292;48.020;7.822;2023-05-16T10:18:14;12.10;99.90
2565;DHT22;1292;48.020;7.822;2023-05-16T10:20:45;12.10;99.90
2565;DHT22;1292;48.020;7.822;2023-05-16T10:23:16;12.20;99.90
2565;DHT22;1292;48.020;7.822;2023-05-16T10:25:44;12.20;99.90
2565;DHT22;1292;48.020;7.822;2023-05-16T10:28:12;12.30;99.90
2565;DHT22;1292;48.020;7.822;2023-05-16T10:30:40;12.30;99.90
2565;DHT22;1292;48.020;7.822;2023-05-16T10:33:09;12.40;99.90
2565;DHT22;1292;48.020;7.822;2023-05-16T10:35:37;12.40;99.90
2565;DHT22;1292;48.020;7.822;2023-05-16T10:38:07;12.40;99.90
2565;DHT22;1292;48.020;7.822;2023-05-16T10:40:35;12.40;99.90
2565;DHT22;1292;48.020;7.822;2023-05-16T10:43:04;12.40;99.90
2565;DHT22;1292;48.020;7.822;2023-05-16T10:45:31;12.30;99.90
2565;DHT22;1292;48.020;7.822;2023-05-16T10:48:00;12.30;99.90
2565;DHT22;1292;48.020;7.822;2023-05-16T10:50:33;12.20;99.90
2565;DHT22;1292;48.020;7.822;2023-05-16T10:53:18;12.20;99.90
2565;DHT22;1292;48.020;7.822;2023-05-16T10:55:50;12.10;99.90
2565;DHT22;1292;48.020;7.822;2023-05-16T10:58:42;12.20;99.90
2565;DHT22;1292;48.020;7.822;2023-05-16T11:04:03;12.20;99.90
2565;DHT22;1292;48.020;7.822;2023-05-16T11:06:31;12.20;99.90
2565;DHT22;1292;48.020;7.822;2023-05-16T11:09:07;12.20;99.90
2565;DHT22;1292;48.020;7.822;2023-05-16T11:11:42;12.20;99.90
2565;DHT22;1292;48.020;7.822;2023-05-16T11:14:19;12.20;99.90
2565;DHT22;1292;48.020;7.822;2023-05-16T11:16:51;12.10;99.90
2565;DHT22;1292;48.020;7.822;2023-05-16T11:19:29;12.00;99.90
2565;DHT22;1292;48.020;7.822;2023-05-16T11:22:12;12.00;99.90
2565;DHT22;1292;48.020;7.822;2023-05-16T11:24:53;11.90;99.90
2565;DHT22;1292;48.020;7.822;2023-05-16T11:27:21;11.90;99.90
2565;DHT22;1292;48.020;7.822;2023-05-16T11:29:49;12.00;99.90
2565;DHT22;1292;48.020;7.822;2023-05-16T11:32:19;12.10;99.90
2565;DHT22;1292;48.020;7.822;2023-05-16T11:34:46;12.10;99.90
2565;DHT22;1292;48.020;7.822;2023-05-16T11:37:13;12.10;99.90
2565;DHT22;1292;48.020;7.822;2023-05-16T11:39:40;12.20;99.90
2565;DHT22;1292;48.020;7.822;2023-05-16T11:42:08;12.20;99.90
2565;DHT22;1292;48.020;7.822;2023-05-16T11:44:35;12.10;99.90
2565;DHT22;1292;48.020;7.822;2023-05-16T11:47:02;12.20;99.90
2565;DHT22;1292;48.020;7.822;2023-05-16T11:49:29;12.30;99.90
2565;DHT22;1292;48.020;7.822;2023-05-16T11:51:56;12.30;99.90
2565;DHT22;1292;48.020;7.822;2023-05-16T11:54:23;12.30;99.90
2565;DHT22;1292;48.020;7.822;2023-05-16T11:56:51;12.30;99.90
2565;DHT22;1292;48.020;7.822;2023-05-16T11:59:19;12.30;99.90
2565;DHT22;1292;48.020;7.822;2023-05-16T12:01:46;12.20;99.90
2565;DHT22;1292;48.020;7.822;2023-05-16T12:04:15;12.10;99.90
2565;DHT22;1292;48.020;7.822;2023-05-16T12:06:56;12.20;99.90
2565;DHT22;1292;48.020;7.822;2023-05-16T12:09:23;12.30;99.90
2565;DHT22;1292;48.020;7.822;2023-05-16T12:11:51;12.20;99.90
2565;DHT22;1292;48.020;7.822;2023-05-16T12:14:19;12.30;99.90
2565;DHT22;1292;48.020;7.822;2023-05-16T12:16:46;12.50;99.90
2565;DHT22;1292;48.020;7.822;2023-05-16T12:19:14;12.50;99.90
2565;DHT22;1292;48.020;7.822;2023-05-16T12:21:41;12.50;99.90
2565;DHT22;1292;48.020;7.822;2023-05-16T12:24:09;12.40;99.90
2565;DHT22;1292;48.020;7.822;2023-05-16T12:26:39;12.40;99.90
2565;DHT22;1292;48.020;7.822;2023-05-16T12:29:07;12.40;99.90
2565;DHT22;1292;48.020;7.822;2023-05-16T12:31:38;12.40;99.90
2565;DHT22;1292;48.020;7.822;2023-05-16T12:34:14;12.40;99.90
2565;DHT22;1292;48.020;7.822;2023-05-16T12:36:41;12.50;99.90
2565;DHT22;1292;48.020;7.822;2023-05-16T12:39:11;12.40;99.90
2565;DHT22;1292;48.020;7.822;2023-05-16T12:41:40;12.20;99.90
2565;DHT22;1292;48.020;7.822;2023-05-16T12:44:10;12.20;99.90
2565;DHT22;1292;48.020;7.822;2023-05-16T12:46:42;12.10;99.90
2565;DHT22;1292;48.020;7.822;2023-05-16T12:49:10;12.10;99.90
2565;DHT22;1292;48.020;7.822;2023-05-16T12:51:37;12.20;99.90
2565;DHT22;1292;48.020;7.822;2023-05-16T12:54:11;12.10;99.90
2565;DHT22;1292;48.020;7.822;2023-05-16T12:56:38;12.10;99.90
2565;DHT22;1292;48.020;7.822;2023-05-16T12:59:05;12.10;99.90
2565;DHT22;1292;48.020;7.822;2023-05-16T13:01:32;12.10;99.90
2565;DHT22;1292;48.020;7.822;2023-05-16T13:04:01;12.20;99.90
2565;DHT22;1292;48.020;7.822;2023-05-16T13:06:28;12.20;99.90
2565;DHT22;1292;48.020;7.822;2023-05-16T13:08:55;12.20;99.90
2565;DHT22;1292;48.020;7.822;2023-05-16T13:11:22;12.20;99.90
2565;DHT22;1292;48.020;7.822;2023-05-16T13:13:49;12.20;99.90
2565;DHT22;1292;48.020;7.822;2023-05-16T13:16:16;12.30;99.90
2565;DHT22;1292;48.020;7.822;2023-05-16T13:18:43;12.10;99.90
2565;DHT22;1292;48.020;7.822;2023-05-16T13:21:11;12.10;99.90
2565;DHT22;1292;48.020;7.822;2023-05-16T13:23:38;12.10;99.90
2565;DHT22;1292;48.020;7.822;2023-05-16T13:26:05;12.00;99.90
2565;DHT22;1292;48.020;7.822;2023-05-16T13:28:32;12.10;99.90
2565;DHT22;1292;48.020;7.822;2023-05-16T13:30:59;12.10;99.90
2565;DHT22;1292;48.020;7.822;2023-05-16T13:33:26;12.10;99.90
2565;DHT22;1292;48.020;7.822;2023-05-16T13:35:53;12.10;99.90
2565;DHT22;1292;48.020;7.822;2023-05-16T13:38:22;12.10;99.90
2565;DHT22;1292;48.020;7.822;2023-05-16T13:40:49;12.00;99.90
2565;DHT22;1292;48.020;7.822;2023-05-16T13:43:15;12.00;99.90
2565;DHT22;1292;48.020;7.822;2023-05-16T13:45:42;12.00;99.90
2565;DHT22;1292;48.020;7.822;2023-05-16T13:48:09;12.00;99.90
2565;DHT22;1292;48.020;7.822;2023-05-16T13:50:36;12.00;99.90
2565;DHT22;1292;48.020;7.822;2023-05-16T13:53:04;12.00;99.90
2565;DHT22;1292;48.020;7.822;2023-05-16T13:55:32;11.90;99.90
2565;DHT22;1292;48.020;7.822;2023-05-16T13:57:59;11.90;99.90
2565;DHT22;1292;48.020;7.822;2023-05-16T14:00:27;11.80;99.90
2565;DHT22;1292;48.020;7.822;2023-05-16T14:02:54;11.80;99.90
2565;DHT22;1292;48.020;7.822;2023-05-16T14:05:20;11.70;99.90
2565;DHT22;1292;48.020;7.822;2023-05-16T14:07:47;11.70;99.90
2565;DHT22;1292;48.020;7.822;2023-05-16T14:10:14;11.70;99.90
2565;DHT22;1292;48.020;7.822;2023-05-16T14:12:43;11.70;99.90
2565;DHT22;1292;48.020;7.822;2023-05-16T14:15:10;11.70;99.90
2565;DHT22;1292;48.020;7.822;2023-05-16T14:17:36;11.70;99.90
2565;DHT22;1292;48.020;7.822;2023-05-16T14:20:04;11.70;99.90
2565;DHT22;1292;48.020;7.822;2023-05-16T14:22:34;11.60;99.90
2565;DHT22;1292;48.020;7.822;2023-05-16T14:25:01;11.60;99.90
2565;DHT22;1292;48.020;7.822;2023-05-16T14:27:28;11.70;99.90
2565;DHT22;1292;48.020;7.822;2023-05-16T14:29:56;11.80;99.90
2565;DHT22;1292;48.020;7.822;2023-05-16T14:32:24;11.90;99.90
2565;DHT22;1292;48.020;7.822;2023-05-16T14:34:50;11.80;99.90
2565;DHT22;1292;48.020;7.822;2023-05-16T14:37:17;11.70;99.90
2565;DHT22;1292;48.020;7.822;2023-05-16T14:39:46;11.70;99.90
2565;DHT22;1292;48.020;7.822;2023-05-16T14:42:15;11.80;99.90
2565;DHT22;1292;48.020;7.822;2023-05-16T14:44:42;11.80;99.90
2565;DHT22;1292;48.020;7.822;2023-05-16T14:47:10;11.60;99.90
2565;DHT22;1292;48.020;7.822;2023-05-16T14:49:37;11.60;99.90
2565;DHT22;1292;48.020;7.822;2023-05-16T14:52:05;11.70;99.90
2565;DHT22;1292;48.020;7.822;2023-05-16T14:54:31;11.70;99.90
2565;DHT22;1292;48.020;7.822;2023-05-16T14:56:58;11.70;99.90
2565;DHT22;1292;48.020;7.822;2023-05-16T14:59:26;11.70;99.90
2565;DHT22;1292;48.020;7.822;2023-05-16T15:01:53;11.80;99.90
2565;DHT22;1292;48.020;7.822;2023-05-16T15:04:21;11.90;99.90
2565;DHT22;1292;48.020;7.822;2023-05-16T15:06:48;11.90;99.90
2565;DHT22;1292;48.020;7.822;2023-05-16T15:09:15;11.90;99.90
2565;DHT22;1292;48.020;7.822;2023-05-16T15:11:42;11.90;99.90
2565;DHT22;1292;48.020;7.822;2023-05-16T15:14:09;11.80;99.90
2565;DHT22;1292;48.020;7.822;2023-05-16T15:16:36;11.80;99.90
2565;DHT22;1292;48.020;7.822;2023-05-16T15:19:02;11.90;99.90
2565;DHT22;1292;48.020;7.822;2023-05-16T15:21:31;11.90;99.90
2565;DHT22;1292;48.020;7.822;2023-05-16T15:23:57;11.80;99.90
2565;DHT22;1292;48.020;7.822;2023-05-16T15:26:25;11.80;99.90
2565;DHT22;1292;48.020;7.822;2023-05-16T15:28:52;11.80;99.90
2565;DHT22;1292;48.020;7.822;2023-05-16T15:31:20;11.80;99.90
2565;DHT22;1292;48.020;7.822;2023-05-16T15:33:46;11.80;99.90
2565;DHT22;1292;48.020;7.822;2023-05-16T15:36:13;11.70;99.90
2565;DHT22;1292;48.020;7.822;2023-05-16T15:38:41;11.70;99.90
2565;DHT22;1292;48.020;7.822;2023-05-16T15:41:10;11.70;99.90
2565;DHT22;1292;48.020;7.822;2023-05-16T15:43:36;11.70;99.90
2565;DHT22;1292;48.020;7.822;2023-05-16T15:46:05;11.70;99.90
2565;DHT22;1292;48.020;7.822;2023-05-16T15:48:32;11.70;99.90
2565;DHT22;1292;48.020;7.822;2023-05-16T15:50:59;11.70;99.90
2565;DHT22;1292;48.020;7.822;2023-05-16T15:53:26;11.70;99.90
2565;DHT22;1292;48.020;7.822;2023-05-16T15:55:54;11.70;99.90
2565;DHT22;1292;48.020;7.822;2023-05-16T15:58:21;11.70;99.90
2565;DHT22;1292;48.020;7.822;2023-05-16T16:00:48;11.60;99.90
2565;DHT22;1292;48.020;7.822;2023-05-16T16:03:15;11.60;99.90
2565;DHT22;1292;48.020;7.822;2023-05-16T16:05:42;11.60;99.90
2565;DHT22;1292;48.020;7.822;2023-05-16T16:08:09;11.70;99.90
2565;DHT22;1292;48.020;7.822;2023-05-16T16:10:36;11.70;99.90
2565;DHT22;1292;48.020;7.822;2023-05-16T16:13:04;11.60;99.90
2565;DHT22;1292;48.020;7.822;2023-05-16T16:15:31;11.60;99.90
2565;DHT22;1292;48.020;7.822;2023-05-16T16:18:00;11.60;99.90
2565;DHT22;1292;48.020;7.822;2023-05-16T16:20:27;11.50;99.90
2565;DHT22;1292;48.020;7.822;2023-05-16T16:22:53;11.50;99.90
2565;DHT22;1292;48.020;7.822;2023-05-16T16:25:20;11.50;99.90
2565;DHT22;1292;48.020;7.822;2023-05-16T16:27:47;11.60;99.90
2565;DHT22;1292;48.020;7.822;2023-05-16T16:30:15;11.50;99.90
2565;DHT22;1292;48.020;7.822;2023-05-16T16:32:42;11.50;99.90
2565;DHT22;1292;48.020;7.822;2023-05-16T16:35:09;11.50;99.90
2565;DHT22;1292;48.020;7.822;2023-05-16T16:37:36;11.50;99.90
2565;DHT22;1292;48.020;7.822;2023-05-16T16:40:04;11.50;99.90
2565;DHT22;1292;48.020;7.822;2023-05-16T16:42:33;11.50;99.90
2565;DHT22;1292;48.020;7.822;2023-05-16T16:45:02;11.60;99.90
2565;DHT22;1292;48.020;7.822;2023-05-16T16:47:31;11.50;99.90
2565;DHT22;1292;48.020;7.822;2023-05-16T16:49:57;11.60;99.90
2565;DHT22;1292;48.020;7.822;2023-05-16T16:52:25;11.60;99.90
2565;DHT22;1292;48.020;7.822;2023-05-16T16:54:52;11.70;99.90
2565;DHT22;1292;48.020;7.822;2023-05-16T16:57:19;11.70;99.90
2565;DHT22;1292;48.020;7.822;2023-05-16T16:59:46;11.70;99.90
2565;DHT22;1292;48.020;7.822;2023-05-16T17:02:13;11.70;99.90
2565;DHT22;1292;48.020;7.822;2023-05-16T17:04:41;11.70;99.90
2565;DHT22;1292;48.020;7.822;2023-05-16T17:07:08;11.60;99.90
2565;DHT22;1292;48.020;7.822;2023-05-16T17:09:35;11.70;99.90
2565;DHT22;1292;48.020;7.822;2023-05-16T17:12:04;11.60;99.90
2565;DHT22;1292;48.020;7.822;2023-05-16T17:14:39;11.70;99.90
2565;DHT22;1292;48.020;7.822;2023-05-16T17:17:06;11.70;99.90
2565;DHT22;1292;48.020;7.822;2023-05-16T17:19:33;11.80;99.90
2565;DHT22;1292;48.020;7.822;2023-05-16T17:22:01;11.80;99.90
2565;DHT22;1292;48.020;7.822;2023-05-16T17:24:28;11.80;99.90
2565;DHT22;1292;48.020;7.822;2023-05-16T17:26:55;11.90;99.90
2565;DHT22;1292;48.020;7.822;2023-05-16T17:29:22;11.90;99.90
2565;DHT22;1292;48.020;7.822;2023-05-16T17:31:49;11.90;99.90
2565;DHT22;1292;48.020;7.822;2023-05-16T17:34:16;11.80;99.90
2565;DHT22;1292;48.020;7.822;2023-05-16T17:36:43;11.80;99.90
2565;DHT22;1292;48.020;7.822;2023-05-16T17:39:12;11.90;99.90
2565;DHT22;1292;48.020;7.822;2023-05-16T17:41:39;11.90;99.90
2565;DHT22;1292;48.020;7.822;2023-05-16T17:44:06;11.80;99.90
2565;DHT22;1292;48.020;7.822;2023-05-16T17:46:33;11.80;99.90
2565;DHT22;1292;48.020;7.822;2023-05-16T17:49:02;11.80;99.90
2565;DHT22;1292;48.020;7.822;2023-05-16T17:51:44;11.80;99.90
2565;DHT22;1292;48.020;7.822;2023-05-16T17:54:12;11.80;99.90
2565;DHT22;1292;48.020;7.822;2023-05-16T17:56:39;11.90;99.90
2565;DHT22;1292;48.020;7.822;2023-05-16T17:59:05;11.80;99.90
2565;DHT22;1292;48.020;7.822;2023-05-16T18:01:34;11.80;99.90
2565;DHT22;1292;48.020;7.822;2023-05-16T18:04:01;11.80;99.90
2565;DHT22;1292;48.020;7.822;2023-05-16T18:06:28;11.80;99.90
2565;DHT22;1292;48.020;7.822;2023-05-16T18:08:55;11.80;99.90
2565;DHT22;1292;48.020;7.822;2023-05-16T18:11:23;11.80;99.90
2565;DHT22;1292;48.020;7.822;2023-05-16T18:13:50;11.90;99.90
2565;DHT22;1292;48.020;7.822;2023-05-16T18:16:17;11.90;99.90
2565;DHT22;1292;48.020;7.822;2023-05-16T18:18:44;12.00;99.90
2565;DHT22;1292;48.020;7.822;2023-05-16T18:21:11;11.90;99.90
2565;DHT22;1292;48.020;7.822;2023-05-16T18:23:38;11.90;99.90
2565;DHT22;1292;48.020;7.822;2023-05-16T18:26:05;11.90;99.90
2565;DHT22;1292;48.020;7.822;2023-05-16T18:28:33;12.00;99.90
2565;DHT22;1292;48.020;7.822;2023-05-16T18:31:01;12.00;99.90
2565;DHT22;1292;48.020;7.822;2023-05-16T18:33:28;12.00;99.90
2565;DHT22;1292;48.020;7.822;2023-05-16T18:35:55;12.00;99.90
2565;DHT22;1292;48.020;7.822;2023-05-16T18:38:22;12.00;99.90
2565;DHT22;1292;48.020;7.822;2023-05-16T18:40:49;12.00;99.90
2565;DHT22;1292;48.020;7.822;2023-05-16T18:43:16;11.90;99.90
2565;DHT22;1292;48.020;7.822;2023-05-16T18:45:44;12.00;99.90
2565;DHT22;1292;48.020;7.822;2023-05-16T18:48:11;11.90;99.90
2565;DHT22;1292;48.020;7.822;2023-05-16T18:50:38;11.90;99.90
2565;DHT22;1292;48.020;7.822;2023-05-16T18:53:05;11.90;99.90
2565;DHT22;1292;48.020;7.822;2023-05-16T18:55:31;11.80;99.90
2565;DHT22;1292;48.020;7.822;2023-05-16T18:57:59;11.80;99.90
2565;DHT22;1292;48.020;7.822;2023-05-16T19:00:26;11.80;99.90
2565;DHT22;1292;48.020;7.822;2023-05-16T19:02:54;11.80;99.90
2565;DHT22;1292;48.020;7.822;2023-05-16T19:05:21;11.80;99.90
2565;DHT22;1292;48.020;7.822;2023-05-16T19:07:47;11.80;99.90
2565;DHT22;1292;48.020;7.822;2023-05-16T19:10:14;11.80;99.90
2565;DHT22;1292;48.020;7.822;2023-05-16T19:12:41;11.70;99.90
2565;DHT22;1292;48.020;7.822;2023-05-16T19:15:11;11.80;99.90
2565;DHT22;1292;48.020;7.822;2023-05-16T19:17:37;11.70;99.90
2565;DHT22;1292;48.020;7.822;2023-05-16T19:20:08;11.80;99.90
2565;DHT22;1292;48.020;7.822;2023-05-16T19:22:35;11.90;99.90
2565;DHT22;1292;48.020;7.822;2023-05-16T19:25:03;11.90;99.90
2565;DHT22;1292;48.020;7.822;2023-05-16T19:27:29;12.00;99.90
2565;DHT22;1292;48.020;7.822;2023-05-16T19:29:56;12.00;99.90
2565;DHT22;1292;48.020;7.822;2023-05-16T19:32:23;12.00;99.90
2565;DHT22;1292;48.020;7.822;2023-05-16T19:34:50;12.10;99.90
2565;DHT22;1292;48.020;7.822;2023-05-16T19:37:18;12.10;99.90
2565;DHT22;1292;48.020;7.822;2023-05-16T19:39:45;12.10;99.90
2565;DHT22;1292;48.020;7.822;2023-05-16T19:42:12;12.10;99.90
2565;DHT22;1292;48.020;7.822;2023-05-16T19:44:38;12.00;99.90
2565;DHT22;1292;48.020;7.822;2023-05-16T19:47:07;12.00;99.90
2565;DHT22;1292;48.020;7.822;2023-05-16T19:49:33;12.00;99.90
2565;DHT22;1292;48.020;7.822;2023-05-16T19:52:01;12.00;99.90
2565;DHT22;1292;48.020;7.822;2023-05-16T19:54:30;11.90;99.90
2565;DHT22;1292;48.020;7.822;2023-05-16T19:56:57;11.90;99.90
2565;DHT22;1292;48.020;7.822;2023-05-16T19:59:24;11.90;99.90
2565;DHT22;1292;48.020;7.822;2023-05-16T20:01:50;12.00;99.90
2565;DHT22;1292;48.020;7.822;2023-05-16T20:04:18;11.90;99.90
2565;DHT22;1292;48.020;7.822;2023-05-16T20:06:44;11.80;99.90
2565;DHT22;1292;48.020;7.822;2023-05-16T20:09:11;11.80;99.90
2565;DHT22;1292;48.020;7.822;2023-05-16T20:11:40;11.80;99.90
2565;DHT22;1292;48.020;7.822;2023-05-16T20:14:07;11.80;99.90
2565;DHT22;1292;48.020;7.822;2023-05-16T20:16:33;11.70;99.90
2565;DHT22;1292;48.020;7.822;2023-05-16T20:19:00;11.70;99.90
2565;DHT22;1292;48.020;7.822;2023-05-16T20:21:27;11.70;99.90
2565;DHT22;1292;48.020;7.822;2023-05-16T20:23:54;11.60;99.90
2565;DHT22;1292;48.020;7.822;2023-05-16T20:26:21;11.60;99.90
2565;DHT22;1292;48.020;7.822;2023-05-16T20:28:49;11.70;99.90
2565;DHT22;1292;48.020;7.822;2023-05-16T20:31:16;11.70;99.90
2565;DHT22;1292;48.020;7.822;2023-05-16T20:33:42;11.60;99.90
2565;DHT22;1292;48.020;7.822;2023-05-16T20:36:11;11.60;99.90
2565;DHT22;1292;48.020;7.822;2023-05-16T20:38:37;11.40;99.90
2565;DHT22;1292;48.020;7.822;2023-05-16T20:41:04;11.30;99.90
2565;DHT22;1292;48.020;7.822;2023-05-16T20:43:31;11.20;99.90
2565;DHT22;1292;48.020;7.822;2023-05-16T20:45:59;11.20;99.90
2565;DHT22;1292;48.020;7.822;2023-05-16T20:48:26;11.10;99.90
2565;DHT22;1292;48.020;7.822;2023-05-16T20:50:53;11.00;99.90
2565;DHT22;1292;48.020;7.822;2023-05-16T20:53:21;11.00;99.90
2565;DHT22;1292;48.020;7.822;2023-05-16T20:55:47;10.90;99.90
2565;DHT22;1292;48.020;7.822;2023-05-16T20:58:14;10.90;99.90
2565;DHT22;1292;48.020;7.822;2023-05-16T21:00:41;10.90;99.90
2565;DHT22;1292;48.020;7.822;2023-05-16T21:03:09;10.90;99.90
2565;DHT22;1292;48.020;7.822;2023-05-16T21:05:37;11.00;99.90
2565;DHT22;1292;48.020;7.822;2023-05-16T21:08:04;11.10;99.90
2565;DHT22;1292;48.020;7.822;2023-05-16T21:10:31;11.10;99.90
2565;DHT22;1292;48.020;7.822;2023-05-16T21:12:58;11.10;99.90
2565;DHT22;1292;48.020;7.822;2023-05-16T21:15:25;11.20;99.90
2565;DHT22;1292;48.020;7.822;2023-05-16T21:17:51;11.20;99.90
2565;DHT22;1292;48.020;7.822;2023-05-16T21:20:20;11.20;99.90
2565;DHT22;1292;48.020;7.822;2023-05-16T21:22:46;11.20;99.90
2565;DHT22;1292;48.020;7.822;2023-05-16T21:25:13;11.20;99.90
2565;DHT22;1292;48.020;7.822;2023-05-16T21:27:40;11.20;99.90
2565;DHT22;1292;48.020;7.822;2023-05-16T21:30:07;11.20;99.90
2565;DHT22;1292;48.020;7.822;2023-05-16T21:32:34;11.20;99.90
2565;DHT22;1292;48.020;7.822;2023-05-16T21:35:01;11.10;99.90
2565;DHT22;1292;48.020;7.822;2023-05-16T21:37:30;11.10;99.90
2565;DHT22;1292;48.020;7.822;2023-05-16T21:39:57;11.10;99.90
